createdAt,value
2023-03-22T00:00:15.441Z,8.07
2023-03-22T00:03:04.005Z,7.91
2023-03-22T00:05:32.098Z,8.29
2023-03-22T00:07:59.384Z,8.56
2023-03-22T00:10:31.098Z,8.64
2023-03-22T00:12:58.314Z,7.91
2023-03-22T00:15:26.468Z,8.19
2023-03-22T00:17:53.652Z,8.24
2023-03-22T00:20:23.669Z,8.12
2023-03-22T00:22:51.115Z,8.18
2023-03-22T00:25:18.676Z,8.25
2023-03-22T00:27:45.998Z,8.30
2023-03-22T00:30:13.988Z,8.49
2023-03-22T00:32:42.505Z,8.44
2023-03-22T00:35:11.367Z,8.56
2023-03-22T00:37:38.921Z,8.61
2023-03-22T00:40:12.404Z,8.75
2023-03-22T00:42:41.270Z,9.05
2023-03-22T00:45:11.604Z,8.97
2023-03-22T00:47:39.271Z,9.00
2023-03-22T00:50:09.067Z,8.73
2023-03-22T00:52:36.822Z,8.61
2023-03-22T00:55:04.599Z,8.75
2023-03-22T00:57:31.864Z,8.55
2023-03-22T00:59:59.607Z,8.51
2023-03-22T01:02:29.800Z,8.89
2023-03-22T01:04:57.919Z,8.82
2023-03-22T01:07:26.527Z,8.68
2023-03-22T01:09:54.798Z,8.81
2023-03-22T01:12:21.993Z,8.49
2023-03-22T01:14:49.544Z,8.56
2023-03-22T01:17:16.832Z,8.82
2023-03-22T01:19:44.446Z,8.65
2023-03-22T01:22:11.750Z,8.36
2023-03-22T01:24:39.360Z,8.83
2023-03-22T01:27:06.641Z,8.71
2023-03-22T01:29:35.472Z,8.65
2023-03-22T01:32:04.212Z,8.90
2023-03-22T01:34:32.033Z,8.82
2023-03-22T01:37:00.861Z,8.70
2023-03-22T01:39:29.367Z,8.80
2023-03-22T01:41:59.323Z,9.00
2023-03-22T01:44:30.693Z,8.93
2023-03-22T01:46:59.191Z,8.95
2023-03-22T01:49:33.192Z,9.09
2023-03-22T01:52:06.387Z,8.89
2023-03-22T01:54:57.118Z,9.14
2023-03-22T01:57:46.047Z,9.26
2023-03-22T02:00:20.641Z,9.51
2023-03-22T02:03:13.345Z,9.27
2023-03-22T02:05:47.828Z,8.93
2023-03-22T02:08:15.776Z,8.85
2023-03-22T02:11:07.736Z,9.04
2023-03-22T02:13:49.341Z,8.99
2023-03-22T02:17:14.606Z,9.22
2023-03-22T02:20:28.552Z,8.92
2023-03-22T02:23:02.345Z,9.28
2023-03-22T02:25:41.729Z,9.14
2023-03-22T02:28:46.413Z,9.10
2023-03-22T02:31:29.123Z,9.05
2023-03-22T02:34:14.686Z,8.90
2023-03-22T02:37:17.485Z,8.82
2023-03-22T02:40:15.139Z,8.99
2023-03-22T02:43:09.941Z,9.29
2023-03-22T02:46:18.070Z,9.20
2023-03-22T02:49:14.895Z,9.59
2023-03-22T02:51:47.047Z,9.56
2023-03-22T02:54:26.555Z,9.64
2023-03-22T02:57:01.580Z,9.39
2023-03-22T02:59:31.240Z,9.64
2023-03-22T03:02:03.783Z,9.70
2023-03-22T03:04:35.617Z,9.85
2023-03-22T03:07:07.399Z,9.78
2023-03-22T03:09:37.361Z,9.79
2023-03-22T03:12:13.562Z,9.95
2023-03-22T03:14:41.033Z,9.86
2023-03-22T03:17:24.005Z,9.97
2023-03-22T03:20:13.292Z,9.99
2023-03-22T03:23:09.882Z,9.86
2023-03-22T03:25:58.121Z,9.98
2023-03-22T03:28:38.531Z,9.58
2023-03-22T03:31:37.656Z,9.79
2023-03-22T03:34:17.207Z,9.71
2023-03-22T03:36:53.467Z,9.97
2023-03-22T03:39:24.224Z,9.88
2023-03-22T03:41:55.221Z,9.86
2023-03-22T03:44:23.851Z,9.68
2023-03-22T03:46:52.898Z,9.69
2023-03-22T03:49:23.279Z,9.61
2023-03-22T03:51:55.942Z,9.64
2023-03-22T03:54:24.016Z,9.63
2023-03-22T03:56:51.299Z,9.73
2023-03-22T03:59:21.030Z,9.56
2023-03-22T04:01:51.709Z,9.31
2023-03-22T04:04:28.582Z,9.49
2023-03-22T04:07:01.365Z,9.59
2023-03-22T04:09:37.284Z,9.67
2023-03-22T04:12:18.203Z,9.79
2023-03-22T04:15:04.459Z,9.65
2023-03-22T04:17:32.221Z,9.50
2023-03-22T04:20:05.361Z,9.69
2023-03-22T04:22:34.658Z,9.31
2023-03-22T04:25:03.709Z,9.13
2023-03-22T04:27:31.698Z,9.50
2023-03-22T04:30:02.306Z,9.44
2023-03-22T04:33:07.282Z,9.53
2023-03-22T04:36:03.450Z,9.59
2023-03-22T04:38:40.421Z,9.54
2023-03-22T04:41:11.564Z,9.40
2023-03-22T04:43:47.154Z,9.30
2023-03-22T04:46:17.208Z,9.39
2023-03-22T04:48:50.347Z,9.65
2023-03-22T04:51:18.599Z,9.60
2023-03-22T04:54:03.089Z,9.68
2023-03-22T04:56:30.735Z,9.62
2023-03-22T04:58:57.995Z,9.36
2023-03-22T05:01:25.769Z,9.42
2023-03-22T05:04:02.331Z,9.63
2023-03-22T05:06:32.806Z,9.29
2023-03-22T05:09:09.754Z,9.27
2023-03-22T05:11:37.537Z,8.83
2023-03-22T05:14:28.054Z,9.39
2023-03-22T05:16:55.782Z,9.50
2023-03-22T05:19:24.508Z,9.39
2023-03-22T05:21:58.317Z,9.63
2023-03-22T05:24:38.095Z,9.26
2023-03-22T05:27:05.922Z,9.45
2023-03-22T05:29:36.925Z,9.27
2023-03-22T05:32:14.901Z,9.60
2023-03-22T05:34:45.521Z,9.60
2023-03-22T05:37:39.368Z,9.63
2023-03-22T05:40:10.122Z,9.85
2023-03-22T05:42:45.482Z,9.88
2023-03-22T05:45:21.762Z,9.89
2023-03-22T05:47:58.722Z,9.69
2023-03-22T05:50:27.622Z,9.75
2023-03-22T05:52:55.202Z,9.63
2023-03-22T05:55:32.226Z,9.69
2023-03-22T05:58:03.228Z,9.88
2023-03-22T06:00:32.374Z,9.78
2023-03-22T06:03:18.653Z,9.92
2023-03-22T06:05:54.883Z,9.65
2023-03-22T06:08:34.161Z,9.79
2023-03-22T06:11:01.484Z,9.74
2023-03-22T06:13:29.089Z,10.08
2023-03-22T06:16:01.105Z,10.14
2023-03-22T06:18:30.048Z,9.88
2023-03-22T06:21:04.182Z,9.92
2023-03-22T06:23:32.425Z,9.74
2023-03-22T06:25:59.711Z,10.16
2023-03-22T06:28:29.941Z,10.19
2023-03-22T06:30:58.954Z,10.07
2023-03-22T06:33:39.947Z,10.08
2023-03-22T06:36:19.540Z,10.21
2023-03-22T06:39:16.407Z,10.24
2023-03-22T06:41:45.402Z,10.19
2023-03-22T06:44:14.019Z,10.46
2023-03-22T06:47:01.336Z,10.51
2023-03-22T06:49:49.918Z,10.46
2023-03-22T06:52:23.308Z,10.27
2023-03-22T06:54:51.400Z,10.59
2023-03-22T06:57:18.999Z,10.27
2023-03-22T06:59:46.632Z,10.72
2023-03-22T07:02:13.945Z,11.16
2023-03-22T07:04:47.008Z,11.22
2023-03-22T07:07:14.605Z,11.06
2023-03-22T07:09:42.298Z,11.28
2023-03-22T07:12:10.050Z,12.52
2023-03-22T07:14:37.952Z,13.23
2023-03-22T07:17:24.598Z,13.66
2023-03-22T07:19:53.342Z,13.63
2023-03-22T07:22:24.913Z,14.54
2023-03-22T07:24:58.223Z,16.01
2023-03-22T07:27:28.413Z,17.78
2023-03-22T07:29:56.762Z,18.44
2023-03-22T07:32:24.136Z,19.19
2023-03-22T07:35:03.476Z,16.80
2023-03-22T07:37:30.947Z,16.58
2023-03-22T07:39:58.668Z,16.82
2023-03-22T07:42:31.284Z,16.90
2023-03-22T07:45:25.266Z,19.10
2023-03-22T07:48:12.038Z,18.90
2023-03-22T07:50:57.569Z,18.89
2023-03-22T07:53:26.704Z,21.15
2023-03-22T07:55:54.401Z,21.75
2023-03-22T07:58:21.740Z,20.74
2023-03-22T08:00:49.834Z,20.45
2023-03-22T08:03:40.172Z,20.69
2023-03-22T08:06:37.200Z,21.62
2023-03-22T08:09:05.262Z,20.99
2023-03-22T08:11:32.840Z,19.15
2023-03-22T08:14:00.382Z,18.04
2023-03-22T08:16:28.316Z,17.93
2023-03-22T08:18:56.557Z,17.63
2023-03-22T08:21:26.386Z,17.03
2023-03-22T08:23:55.717Z,16.98
2023-03-22T08:26:49.828Z,15.71
2023-03-22T08:29:37.447Z,15.45
2023-03-22T08:32:07.822Z,16.53
2023-03-22T08:34:40.514Z,16.51
2023-03-22T08:37:09.334Z,16.62
2023-03-22T08:39:37.003Z,16.57
2023-03-22T08:42:27.364Z,17.07
2023-03-22T08:44:54.606Z,16.93
2023-03-22T08:47:25.013Z,16.58
2023-03-22T08:49:56.629Z,16.89
2023-03-22T08:52:34.312Z,17.60
2023-03-22T08:55:10.314Z,17.76
2023-03-22T08:58:04.651Z,17.14
2023-03-22T09:00:48.525Z,16.56
2023-03-22T09:03:47.310Z,17.01
2023-03-22T09:06:15.085Z,17.68
2023-03-22T09:08:44.187Z,17.29
2023-03-22T09:11:17.550Z,17.59
2023-03-22T09:13:47.211Z,18.60
2023-03-22T09:16:15.101Z,19.00
2023-03-22T09:18:44.090Z,18.21
2023-03-22T09:21:16.055Z,18.52
2023-03-22T09:24:12.547Z,19.15
2023-03-22T09:26:44.506Z,19.54
2023-03-22T09:29:12.527Z,17.66
2023-03-22T09:31:41.109Z,17.12
2023-03-22T09:34:17.931Z,16.90
2023-03-22T09:36:45.528Z,16.66
2023-03-22T09:39:16.434Z,17.34
2023-03-22T09:41:54.968Z,16.12
2023-03-22T09:44:42.897Z,16.18
2023-03-22T09:47:44.270Z,15.54
2023-03-22T09:50:30.463Z,15.85
2023-03-22T09:52:58.773Z,15.84
2023-03-22T09:55:46.083Z,15.79
2023-03-22T09:58:22.480Z,15.37
2023-03-22T10:01:12.227Z,15.51
2023-03-22T10:04:15.611Z,14.91
2023-03-22T10:06:49.474Z,15.11
2023-03-22T10:09:31.843Z,14.95
2023-03-22T10:12:34.082Z,15.43
2023-03-22T10:15:10.835Z,16.35
2023-03-22T10:17:43.032Z,17.19
2023-03-22T10:20:24.237Z,17.01
2023-03-22T10:22:54.396Z,16.70
2023-03-22T10:25:28.032Z,17.26
2023-03-22T10:27:57.305Z,16.32
2023-03-22T10:30:27.594Z,16.15
2023-03-22T10:33:03.827Z,16.68
2023-03-22T10:35:32.390Z,16.93
2023-03-22T10:38:03.857Z,17.24
2023-03-22T10:40:36.566Z,18.29
2023-03-22T10:43:10.517Z,17.94
2023-03-22T10:45:38.777Z,18.05
2023-03-22T10:48:36.208Z,18.12
2023-03-22T10:51:04.350Z,18.42
2023-03-22T10:53:49.973Z,18.19
2023-03-22T10:56:20.293Z,18.17
2023-03-22T10:58:50.069Z,18.79
2023-03-22T11:01:27.724Z,18.74
2023-03-22T11:03:59.102Z,18.90
2023-03-22T11:06:30.131Z,18.95
2023-03-22T11:09:17.944Z,19.51
2023-03-22T11:11:57.654Z,19.12
2023-03-22T11:14:43.250Z,19.06
2023-03-22T11:17:14.958Z,18.53
2023-03-22T11:19:52.956Z,18.98
2023-03-22T11:22:31.630Z,18.34
2023-03-22T11:25:00.769Z,17.43
2023-03-22T11:27:33.444Z,16.83
2023-03-22T11:30:09.900Z,17.04
2023-03-22T11:32:39.438Z,16.64
2023-03-22T11:35:16.666Z,16.70
2023-03-22T11:37:47.041Z,16.75
2023-03-22T11:40:26.628Z,16.63
2023-03-22T11:43:11.153Z,16.63
2023-03-22T11:45:42.779Z,16.36
2023-03-22T11:48:16.695Z,15.88
2023-03-22T11:50:45.906Z,16.59
2023-03-22T11:53:19.179Z,17.30
2023-03-22T11:55:50.346Z,16.62
2023-03-22T11:58:27.161Z,15.86
2023-03-22T12:00:59.679Z,16.00
2023-03-22T12:03:36.723Z,16.07
2023-03-22T12:06:16.651Z,16.20
2023-03-22T12:08:49.769Z,16.28
2023-03-22T12:11:36.229Z,15.70
2023-03-22T12:14:42.391Z,15.56
2023-03-22T12:17:28.783Z,15.62
2023-03-22T12:20:29.261Z,16.14
2023-03-22T12:22:57.097Z,16.05
2023-03-22T12:25:32.316Z,16.21
2023-03-22T12:28:06.910Z,16.05
2023-03-22T12:30:43.048Z,16.35
2023-03-22T12:33:17.941Z,16.63
2023-03-22T12:35:46.909Z,16.51
2023-03-22T12:38:28.069Z,16.29
2023-03-22T12:40:58.066Z,16.16
2023-03-22T12:43:44.220Z,16.37
2023-03-22T12:46:27.843Z,15.94
2023-03-22T12:49:03.811Z,15.90
2023-03-22T12:51:31.562Z,15.79
2023-03-22T12:54:01.957Z,15.73
2023-03-22T12:56:50.262Z,15.64
2023-03-22T12:59:22.344Z,15.75
2023-03-22T13:02:01.265Z,15.36
2023-03-22T13:04:36.642Z,15.66
2023-03-22T13:07:19.628Z,15.84
2023-03-22T13:09:50.834Z,16.19
2023-03-22T13:12:18.082Z,15.07
2023-03-22T13:15:28.273Z,14.82
2023-03-22T13:17:59.297Z,15.32
2023-03-22T13:20:30.914Z,15.19
2023-03-22T13:23:01.871Z,15.36
2023-03-22T13:25:34.864Z,15.26
2023-03-22T13:28:26.414Z,14.78
2023-03-22T13:30:58.220Z,15.05
2023-03-22T13:33:29.059Z,14.76
2023-03-22T13:36:07.443Z,15.01
2023-03-22T13:38:42.416Z,14.83
2023-03-22T13:41:33.037Z,14.79
2023-03-22T13:44:04.371Z,15.03
2023-03-22T13:46:36.488Z,14.88
2023-03-22T13:49:04.309Z,15.12
2023-03-22T13:51:33.299Z,15.01
2023-03-22T13:54:16.601Z,14.81
2023-03-22T13:56:44.511Z,15.03
2023-03-22T13:59:14.559Z,15.27
2023-03-22T14:01:47.748Z,14.75
2023-03-22T14:04:22.808Z,15.17
2023-03-22T14:06:55.223Z,15.30
2023-03-22T14:09:31.281Z,15.08
2023-03-22T14:12:20.100Z,15.16
2023-03-22T14:14:52.128Z,15.37
2023-03-22T14:17:39.264Z,15.11
2023-03-22T14:20:11.425Z,15.57
